sensor_id;sensor_type;location;lat;lon;timestamp;pressure;altitude;pressure_sealevel;temperature;humidity
61039;BME280;46919;45.816;3.104;2023-02-28T00:00:13;98141.91;;;-1.13;56.65
61039;BME280;46919;45.816;3.104;2023-02-28T00:02:40;98137.03;;;-1.18;56.60
61039;BME280;46919;45.816;3.104;2023-02-28T00:05:07;98133.16;;;-1.23;56.95
61039;BME280;46919;45.816;3.104;2023-02-28T00:07:33;98136.22;;;-1.18;56.68
61039;BME280;46919;45.816;3.104;2023-02-28T00:09:59;98133.66;;;-1.10;56.49
61039;BME280;46919;45.816;3.104;2023-02-28T00:12:24;98142.03;;;-1.05;56.27
61039;BME280;46919;45.816;3.104;2023-02-28T00:14:50;98142.31;;;-1.08;56.56
61039;BME280;46919;45.816;3.104;2023-02-28T00:17:16;98135.06;;;-1.06;56.50
61039;BME280;46919;45.816;3.104;2023-02-28T00:19:43;98133.38;;;-1.07;57.19
61039;BME280;46919;45.816;3.104;2023-02-28T00:22:09;98135.06;;;-1.06;56.86
61039;BME280;46919;45.816;3.104;2023-02-28T00:24:34;98135.88;;;-1.05;56.54
61039;BME280;46919;45.816;3.104;2023-02-28T00:27:00;98135.88;;;-1.05;56.71
61039;BME280;46919;45.816;3.104;2023-02-28T00:29:25;98133.97;;;-1.13;57.04
61039;BME280;46919;45.816;3.104;2023-02-28T00:31:50;98139.25;;;-1.13;57.34
61039;BME280;46919;45.816;3.104;2023-02-28T00:34:16;98135.22;;;-1.07;57.55
61039;BME280;46919;45.816;3.104;2023-02-28T00:36:42;98131.97;;;-1.01;56.84
61039;BME280;46919;45.816;3.104;2023-02-28T00:39:11;98135.56;;;-0.93;56.83
61039;BME280;46919;45.816;3.104;2023-02-28T00:41:36;98131.66;;;-0.88;56.64
61039;BME280;46919;45.816;3.104;2023-02-28T00:44:02;98128.41;;;-0.82;56.53
61039;BME280;46919;45.816;3.104;2023-02-28T00:46:27;98127.97;;;-0.78;56.45
61039;BME280;46919;45.816;3.104;2023-02-28T00:48:53;98130.16;;;-0.73;56.28
61039;BME280;46919;45.816;3.104;2023-02-28T00:51:18;98127.13;;;-0.78;56.42
61039;BME280;46919;45.816;3.104;2023-02-28T00:53:44;98129.38;;;-0.83;56.59
61039;BME280;46919;45.816;3.104;2023-02-28T00:56:09;98124.06;;;-0.83;56.20
61039;BME280;46919;45.816;3.104;2023-02-28T00:58:34;98127.69;;;-0.84;56.33
61039;BME280;46919;45.816;3.104;2023-02-28T01:01:00;98125.19;;;-0.86;56.48
61039;BME280;46919;45.816;3.104;2023-02-28T01:03:25;98129.25;;;-0.82;56.25
61039;BME280;46919;45.816;3.104;2023-02-28T01:05:51;98124.75;;;-0.81;56.56
61039;BME280;46919;45.816;3.104;2023-02-28T01:08:18;98126.59;;;-0.82;56.39
61039;BME280;46919;45.816;3.104;2023-02-28T01:10:44;98118.47;;;-0.80;56.77
61039;BME280;46919;45.816;3.104;2023-02-28T01:13:11;98128.81;;;-0.77;56.48
61039;BME280;46919;45.816;3.104;2023-02-28T01:15:37;98117.91;;;-0.74;56.91
61039;BME280;46919;45.816;3.104;2023-02-28T01:18:04;98119.97;;;-0.68;56.88
61039;BME280;46919;45.816;3.104;2023-02-28T01:20:30;98119.53;;;-0.63;56.63
61039;BME280;46919;45.816;3.104;2023-02-28T01:22:55;98121.59;;;-0.57;56.83
61039;BME280;46919;45.816;3.104;2023-02-28T01:25:21;98113.63;;;-0.57;56.92
61039;BME280;46919;45.816;3.104;2023-02-28T01:27:46;98103.22;;;-0.50;55.85
61039;BME280;46919;45.816;3.104;2023-02-28T01:30:11;98112.84;;;-0.49;56.43
61039;BME280;46919;45.816;3.104;2023-02-28T01:32:37;98113.84;;;-0.50;56.53
61039;BME280;46919;45.816;3.104;2023-02-28T01:35:03;98113.00;;;-0.51;56.63
61039;BME280;46919;45.816;3.104;2023-02-28T01:37:28;98116.50;;;-0.50;56.24
61039;BME280;46919;45.816;3.104;2023-02-28T01:39:53;98119.47;;;-0.53;56.61
61039;BME280;46919;45.816;3.104;2023-02-28T01:42:19;98121.13;;;-0.52;56.48
61039;BME280;46919;45.816;3.104;2023-02-28T01:47:36;98119.16;;;-0.50;56.61
61039;BME280;46919;45.816;3.104;2023-02-28T01:50:06;98115.50;;;-0.49;56.55
61039;BME280;46919;45.816;3.104;2023-02-28T01:52:33;98113.41;;;-0.46;56.54
61039;BME280;46919;45.816;3.104;2023-02-28T01:55:01;98123.03;;;-0.45;56.45
61039;BME280;46919;45.816;3.104;2023-02-28T01:57:34;98117.19;;;-0.48;56.88
61039;BME280;46919;45.816;3.104;2023-02-28T02:00:09;98120.81;;;-0.49;56.50
61039;BME280;46919;45.816;3.104;2023-02-28T02:02:36;98121.09;;;-0.43;56.06
61039;BME280;46919;45.816;3.104;2023-02-28T02:05:03;98125.09;;;-0.39;56.33
61039;BME280;46919;45.816;3.104;2023-02-28T02:07:33;98123.09;;;-0.37;56.20
61039;BME280;46919;45.816;3.104;2023-02-28T02:15:09;98116.59;;;-0.42;56.19
61039;BME280;46919;45.816;3.104;2023-02-28T02:17:51;98114.31;;;-0.37;56.21
61039;BME280;46919;45.816;3.104;2023-02-28T02:20:37;98117.97;;;-0.38;56.49
61039;BME280;46919;45.816;3.104;2023-02-28T02:23:32;98112.97;;;-0.41;56.97
61039;BME280;46919;45.816;3.104;2023-02-28T02:32:32;98122.59;;;-0.40;56.90
61039;BME280;46919;45.816;3.104;2023-02-28T02:34:42;98118.41;;;-0.43;56.86
61039;BME280;46919;45.816;3.104;2023-02-28T02:39:53;98124.13;;;-0.38;56.76
61039;BME280;46919;45.816;3.104;2023-02-28T02:42:55;98125.31;;;-0.32;56.49
61039;BME280;46919;45.816;3.104;2023-02-28T02:45:27;98119.19;;;-0.32;57.15
61039;BME280;46919;45.816;3.104;2023-02-28T02:48:01;98117.19;;;-0.30;56.50
61039;BME280;46919;45.816;3.104;2023-02-28T02:50:44;98121.69;;;-0.31;57.29
61039;BME280;46919;45.816;3.104;2023-02-28T02:53:12;98117.34;;;-0.32;56.90
61039;BME280;46919;45.816;3.104;2023-02-28T02:55:43;98108.72;;;-0.34;57.31
61039;BME280;46919;45.816;3.104;2023-02-28T02:58:14;98122.66;;;-0.32;57.19
61039;BME280;46919;45.816;3.104;2023-02-28T03:00:48;98116.53;;;-0.32;57.61
61039;BME280;46919;45.816;3.104;2023-02-28T03:03:18;98116.00;;;-0.36;57.74
61039;BME280;46919;45.816;3.104;2023-02-28T03:05:50;98116.53;;;-0.32;57.71
61039;BME280;46919;45.816;3.104;2023-02-28T03:08:16;98122.66;;;-0.32;57.74
61039;BME280;46919;45.816;3.104;2023-02-28T03:10:44;98128.28;;;-0.35;58.13
61039;BME280;46919;45.816;3.104;2023-02-28T03:16:21;98121.91;;;-0.42;57.91
61039;BME280;46919;45.816;3.104;2023-02-28T03:21:44;98130.84;;;-0.43;58.45
61039;BME280;46919;45.816;3.104;2023-02-28T03:24:19;98130.03;;;-0.44;58.99
61039;BME280;46919;45.816;3.104;2023-02-28T03:26:55;98125.25;;;-0.40;57.95
61039;BME280;46919;45.816;3.104;2023-02-28T03:29:34;98125.81;;;-0.46;58.52
61039;BME280;46919;45.816;3.104;2023-02-28T03:32:21;98122.19;;;-0.45;58.50
61039;BME280;46919;45.816;3.104;2023-02-28T03:35:09;98130.03;;;-0.44;58.49
61039;BME280;46919;45.816;3.104;2023-02-28T03:37:40;98133.13;;;-0.48;58.39
61039;BME280;46919;45.816;3.104;2023-02-28T03:40:13;98127.50;;;-0.45;58.46
61039;BME280;46919;45.816;3.104;2023-02-28T03:42:42;98135.47;;;-0.45;58.53
61039;BME280;46919;45.816;3.104;2023-02-28T03:45:19;98133.13;;;-0.48;58.44
61039;BME280;46919;45.816;3.104;2023-02-28T03:48:08;98133.41;;;-0.51;58.20
61039;BME280;46919;45.816;3.104;2023-02-28T03:50:40;98135.91;;;-0.50;58.04
61039;BME280;46919;45.816;3.104;2023-02-28T03:53:39;98129.06;;;-0.52;58.44
61039;BME280;46919;45.816;3.104;2023-02-28T03:56:34;98131.72;;;-0.52;58.48
61039;BME280;46919;45.816;3.104;2023-02-28T03:59:26;98129.78;;;-0.50;58.64
61039;BME280;46919;45.816;3.104;2023-02-28T04:01:53;98126.56;;;-0.54;58.45
61039;BME280;46919;45.816;3.104;2023-02-28T04:04:20;98125.06;;;-0.57;58.56
61039;BME280;46919;45.816;3.104;2023-02-28T04:06:49;98124.25;;;-0.57;58.54
61039;BME280;46919;45.816;3.104;2023-02-28T04:09:15;98123.38;;;-0.58;58.11
61039;BME280;46919;45.816;3.104;2023-02-28T04:11:51;98132.66;;;-0.62;58.41
61039;BME280;46919;45.816;3.104;2023-02-28T04:14:18;98135.97;;;-0.60;58.39
61039;BME280;46919;45.816;3.104;2023-02-28T04:16:44;98134.53;;;-0.54;58.14
61039;BME280;46919;45.816;3.104;2023-02-28T04:19:11;98126.19;;;-0.59;58.44
61039;BME280;46919;45.816;3.104;2023-02-28T04:21:42;98141.03;;;-0.66;58.57
61039;BME280;46919;45.816;3.104;2023-02-28T04:24:10;98146.78;;;-0.71;58.81
61039;BME280;46919;45.816;3.104;2023-02-28T04:26:40;98141.78;;;-0.74;58.26
61039;BME280;46919;45.816;3.104;2023-02-28T04:29:09;98139.66;;;-0.70;58.78
61039;BME280;46919;45.816;3.104;2023-02-28T04:31:34;98141.19;;;-0.68;58.80
61039;BME280;46919;45.816;3.104;2023-02-28T04:34:00;98132.81;;;-0.73;58.33
61039;BME280;46919;45.816;3.104;2023-02-28T04:36:26;98135.19;;;-0.70;58.61
61039;BME280;46919;45.816;3.104;2023-02-28T04:38:52;98141.03;;;-0.66;58.13
61039;BME280;46919;45.816;3.104;2023-02-28T04:41:18;98148.16;;;-0.67;57.63
61039;BME280;46919;45.816;3.104;2023-02-28T04:43:44;98148.44;;;-0.70;58.03
61039;BME280;46919;45.816;3.104;2023-02-28T04:46:10;98153.06;;;-0.72;58.34
61039;BME280;46919;45.816;3.104;2023-02-28T04:48:37;98154.03;;;-0.73;58.58
61039;BME280;46919;45.816;3.104;2023-02-28T04:51:08;98155.88;;;-0.74;58.27
61039;BME280;46919;45.816;3.104;2023-02-28T04:53:36;98156.16;;;-0.77;58.45
61039;BME280;46919;45.816;3.104;2023-02-28T04:56:01;98153.81;;;-0.80;58.34
61039;BME280;46919;45.816;3.104;2023-02-28T04:58:27;98155.78;;;-0.82;58.59
61039;BME280;46919;45.816;3.104;2023-02-28T05:00:53;98162.50;;;-0.87;58.93
61039;BME280;46919;45.816;3.104;2023-02-28T05:03:20;98158.19;;;-0.88;59.05
61039;BME280;46919;45.816;3.104;2023-02-28T05:05:48;98168.50;;;-0.85;59.17
61039;BME280;46919;45.816;3.104;2023-02-28T05:08:13;98166.28;;;-0.90;58.93
61039;BME280;46919;45.816;3.104;2023-02-28T05:10:39;98166.28;;;-0.90;59.11
61039;BME280;46919;45.816;3.104;2023-02-28T05:13:04;98169.63;;;-0.88;58.46
61039;BME280;46919;45.816;3.104;2023-02-28T05:15:30;98174.94;;;-0.88;58.48
61039;BME280;46919;45.816;3.104;2023-02-28T05:17:55;98177.72;;;-0.89;59.00
61039;BME280;46919;45.816;3.104;2023-02-28T05:20:21;98177.59;;;-0.88;58.64
61039;BME280;46919;45.816;3.104;2023-02-28T05:22:46;98177.03;;;-0.92;58.50
61039;BME280;46919;45.816;3.104;2023-02-28T05:25:18;98187.22;;;-0.87;58.54
61039;BME280;46919;45.816;3.104;2023-02-28T05:27:43;98179.13;;;-0.85;58.58
61039;BME280;46919;45.816;3.104;2023-02-28T05:30:09;98190.03;;;-0.88;58.41
61039;BME280;46919;45.816;3.104;2023-02-28T05:32:39;98189.31;;;-0.91;58.86
61039;BME280;46919;45.816;3.104;2023-02-28T05:35:09;98188.19;;;-0.88;58.82
61039;BME280;46919;45.816;3.104;2023-02-28T05:37:35;98196.69;;;-0.84;58.49
61039;BME280;46919;45.816;3.104;2023-02-28T05:40:01;98188.72;;;-0.84;58.06
61039;BME280;46919;45.816;3.104;2023-02-28T05:42:26;98189.88;;;-0.87;58.32
61039;BME280;46919;45.816;3.104;2023-02-28T05:44:52;98195.06;;;-0.95;58.47
61039;BME280;46919;45.816;3.104;2023-02-28T05:47:17;98196.19;;;-0.98;58.86
61039;BME280;46919;45.816;3.104;2023-02-28T05:49:43;98202.56;;;-0.91;58.43
61039;BME280;46919;45.816;3.104;2023-02-28T05:52:08;98198.69;;;-0.96;58.42
61039;BME280;46919;45.816;3.104;2023-02-28T05:54:34;98198.16;;;-1.00;58.88
61039;BME280;46919;45.816;3.104;2023-02-28T05:56:59;98200.94;;;-0.92;58.19
61039;BME280;46919;45.816;3.104;2023-02-28T05:59:24;98209.75;;;-1.01;58.56
61039;BME280;46919;45.816;3.104;2023-02-28T06:01:50;98206.94;;;-0.99;58.48
61039;BME280;46919;45.816;3.104;2023-02-28T06:04:18;98208.06;;;-1.02;59.03
61039;BME280;46919;45.816;3.104;2023-02-28T06:06:48;98214.38;;;-1.03;58.86
61039;BME280;46919;45.816;3.104;2023-02-28T06:09:14;98206.25;;;-1.01;58.87
61039;BME280;46919;45.816;3.104;2023-02-28T06:11:40;98210.72;;;-1.02;58.78
61039;BME280;46919;45.816;3.104;2023-02-28T06:14:07;98217.59;;;-1.09;59.35
61039;BME280;46919;45.816;3.104;2023-02-28T06:16:34;98202.34;;;-1.07;59.03
61039;BME280;46919;45.816;3.104;2023-02-28T06:19:02;98206.13;;;-1.10;58.97
61039;BME280;46919;45.816;3.104;2023-02-28T06:21:28;98214.66;;;-1.06;59.12
61039;BME280;46919;45.816;3.104;2023-02-28T06:23:55;98208.34;;;-1.05;58.82
61039;BME280;46919;45.816;3.104;2023-02-28T06:26:20;98200.38;;;-1.05;58.41
61039;BME280;46919;45.816;3.104;2023-02-28T06:28:46;98201.66;;;-1.09;58.46
61039;BME280;46919;45.816;3.104;2023-02-28T06:31:14;98206.72;;;-1.16;58.94
61039;BME280;46919;45.816;3.104;2023-02-28T06:33:41;98217.88;;;-1.12;58.72
61039;BME280;46919;45.816;3.104;2023-02-28T06:36:08;98219.53;;;-1.11;58.86
61039;BME280;46919;45.816;3.104;2023-02-28T06:38:35;98212.28;;;-1.09;58.89
61039;BME280;46919;45.816;3.104;2023-02-28T06:41:00;98216.03;;;-1.12;58.68
61039;BME280;46919;45.816;3.104;2023-02-28T06:43:31;98223.16;;;-1.12;58.81
61039;BME280;46919;45.816;3.104;2023-02-28T06:45:58;98221.50;;;-1.13;58.78
61039;BME280;46919;45.816;3.104;2023-02-28T06:48:26;98219.38;;;-1.10;58.83
61039;BME280;46919;45.816;3.104;2023-02-28T06:50:52;98222.75;;;-1.07;59.04
61039;BME280;46919;45.816;3.104;2023-02-28T06:53:17;98227.34;;;-1.10;59.21
61039;BME280;46919;45.816;3.104;2023-02-28T06:55:43;98226.38;;;-1.08;59.15
61039;BME280;46919;45.816;3.104;2023-02-28T06:58:08;98220.25;;;-1.09;59.10
61039;BME280;46919;45.816;3.104;2023-02-28T07:00:44;98228.88;;;-1.07;58.82
61039;BME280;46919;45.816;3.104;2023-02-28T07:03:10;98226.91;;;-1.05;59.22
61039;BME280;46919;45.816;3.104;2023-02-28T07:05:37;98228.03;;;-0.98;59.09
61039;BME280;46919;45.816;3.104;2023-02-28T07:08:04;98222.88;;;-0.99;59.02
61039;BME280;46919;45.816;3.104;2023-02-28T07:10:30;98223.69;;;-0.99;58.80
61039;BME280;46919;45.816;3.104;2023-02-28T07:12:55;98241.72;;;-1.02;59.33
61039;BME280;46919;45.816;3.104;2023-02-28T07:15:21;98229.00;;;-0.99;59.12
61039;BME280;46919;45.816;3.104;2023-02-28T07:17:46;98236.13;;;-0.99;59.08
61039;BME280;46919;45.816;3.104;2023-02-28T07:20:12;98241.97;;;-0.96;58.83
61039;BME280;46919;45.816;3.104;2023-02-28T07:22:37;98236.66;;;-0.96;58.92
61039;BME280;46919;45.816;3.104;2023-02-28T07:25:04;98241.69;;;-0.93;59.20
61039;BME280;46919;45.816;3.104;2023-02-28T07:27:30;98253.13;;;-0.92;58.84
61039;BME280;46919;45.816;3.104;2023-02-28T07:29:55;98250.94;;;-0.97;58.77
61039;BME280;46919;45.816;3.104;2023-02-28T07:32:21;98254.00;;;-0.92;58.39
61039;BME280;46919;45.816;3.104;2023-02-28T07:34:46;98259.00;;;-0.88;59.01
61039;BME280;46919;45.816;3.104;2023-02-28T07:37:12;98247.53;;;-0.79;58.28
61039;BME280;46919;45.816;3.104;2023-02-28T07:39:37;98259.53;;;-0.75;58.07
61039;BME280;46919;45.816;3.104;2023-02-28T07:42:06;98265.13;;;-0.78;58.49
61039;BME280;46919;45.816;3.104;2023-02-28T07:44:34;98263.72;;;-0.73;58.77
61039;BME280;46919;45.816;3.104;2023-02-28T07:47:00;98261.47;;;-0.67;58.12
61039;BME280;46919;45.816;3.104;2023-02-28T07:49:26;98253.94;;;-0.72;58.24
61039;BME280;46919;45.816;3.104;2023-02-28T07:51:51;98265.09;;;-0.68;58.01
61039;BME280;46919;45.816;3.104;2023-02-28T07:54:16;98266.88;;;-0.59;57.70
61039;BME280;46919;45.816;3.104;2023-02-28T07:56:42;98268.13;;;-0.53;57.97
61039;BME280;46919;45.816;3.104;2023-02-28T07:59:07;98258.47;;;-0.55;57.77
61039;BME280;46919;45.816;3.104;2023-02-28T08:01:32;98256.13;;;-0.58;57.63
61039;BME280;46919;45.816;3.104;2023-02-28T08:03:58;98257.50;;;-0.53;57.91
61039;BME280;46919;45.816;3.104;2023-02-28T08:06:24;98256.13;;;-0.58;57.58
61039;BME280;46919;45.816;3.104;2023-02-28T08:08:52;98257.50;;;-0.53;57.63
61039;BME280;46919;45.816;3.104;2023-02-28T08:11:18;98255.25;;;-0.48;57.19
61039;BME280;46919;45.816;3.104;2023-02-28T08:13:45;98256.06;;;-0.38;57.04
61039;BME280;46919;45.816;3.104;2023-02-28T08:16:12;98249.16;;;-0.31;57.46
61039;BME280;46919;45.816;3.104;2023-02-28T08:18:40;98255.72;;;-0.25;57.32
61039;BME280;46919;45.816;3.104;2023-02-28T08:21:09;98256.84;;;-0.28;56.74
61039;BME280;46919;45.816;3.104;2023-02-28T08:23:35;98259.91;;;-0.23;56.83
61039;BME280;46919;45.816;3.104;2023-02-28T08:26:01;98250.00;;;-0.30;56.52
61039;BME280;46919;45.816;3.104;2023-02-28T08:28:26;98246.47;;;-0.21;56.36
61039;BME280;46919;45.816;3.104;2023-02-28T08:30:52;98248.59;;;-0.25;56.50
61039;BME280;46919;45.816;3.104;2023-02-28T08:33:17;98256.03;;;-0.28;56.66
61039;BME280;46919;45.816;3.104;2023-02-28T08:35:42;98261.56;;;-0.22;56.92
61039;BME280;46919;45.816;3.104;2023-02-28T08:38:08;98258.78;;;-0.20;56.79
61039;BME280;46919;45.816;3.104;2023-02-28T08:40:33;98261.66;;;-0.13;56.66
61039;BME280;46919;45.816;3.104;2023-02-28T08:42:59;98271.31;;;-0.12;56.20
61039;BME280;46919;45.816;3.104;2023-02-28T08:45:25;98268.09;;;-0.06;56.30
61039;BME280;46919;45.816;3.104;2023-02-28T08:47:50;98272.03;;;0.08;56.54
61039;BME280;46919;45.816;3.104;2023-02-28T08:50:17;98270.25;;;0.08;56.66
61039;BME280;46919;45.816;3.104;2023-02-28T08:52:43;98274.84;;;0.06;56.00
61039;BME280;46919;45.816;3.104;2023-02-28T08:55:09;98279.31;;;0.06;56.24
61039;BME280;46919;45.816;3.104;2023-02-28T08:57:35;98275.69;;;0.07;55.72
61039;BME280;46919;45.816;3.104;2023-02-28T09:00:00;98274.97;;;0.14;56.05
61039;BME280;46919;45.816;3.104;2023-02-28T09:02:30;98279.13;;;0.17;56.46
61039;BME280;46919;45.816;3.104;2023-02-28T09:04:55;98279.75;;;0.29;56.00
61039;BME280;46919;45.816;3.104;2023-02-28T09:07:20;98277.63;;;0.32;55.50
61039;BME280;46919;45.816;3.104;2023-02-28T09:09:46;98276.03;;;0.40;55.29
61039;BME280;46919;45.816;3.104;2023-02-28T09:12:25;98281.81;;;0.35;55.77
61039;BME280;46919;45.816;3.104;2023-02-28T09:14:51;98280.06;;;0.44;55.57
61039;BME280;46919;45.816;3.104;2023-02-28T09:17:17;98284.34;;;0.54;55.37
61039;BME280;46919;45.816;3.104;2023-02-28T09:19:43;98282.84;;;0.70;55.72
61039;BME280;46919;45.816;3.104;2023-02-28T09:22:10;98284.19;;;0.74;55.03
61039;BME280;46919;45.816;3.104;2023-02-28T09:24:37;98290.19;;;0.76;54.90
61039;BME280;46919;45.816;3.104;2023-02-28T09:27:02;98289.88;;;0.79;54.93
61039;BME280;46919;45.816;3.104;2023-02-28T09:29:28;98288.28;;;0.86;54.58
61039;BME280;46919;45.816;3.104;2023-02-28T09:31:54;98285.69;;;0.95;54.54
61039;BME280;46919;45.816;3.104;2023-02-28T09:34:19;98282.72;;;0.98;54.18
61039;BME280;46919;45.816;3.104;2023-02-28T09:36:45;98292.09;;;1.02;54.04
61039;BME280;46919;45.816;3.104;2023-02-28T09:39:11;98292.81;;;1.12;54.01
61039;BME280;46919;45.816;3.104;2023-02-28T09:41:40;98287.94;;;1.25;54.42
61039;BME280;46919;45.816;3.104;2023-02-28T09:44:19;98295.31;;;1.32;53.02
61039;BME280;46919;45.816;3.104;2023-02-28T09:46:50;98289.28;;;1.30;54.17
61039;BME280;46919;45.816;3.104;2023-02-28T09:49:21;98297.97;;;1.32;53.47
61039;BME280;46919;45.816;3.104;2023-02-28T09:51:55;98292.72;;;1.22;53.63
61039;BME280;46919;45.816;3.104;2023-02-28T09:54:23;98296.44;;;1.29;53.52
61039;BME280;46919;45.816;3.104;2023-02-28T09:56:53;98304.28;;;1.31;53.32
61039;BME280;46919;45.816;3.104;2023-02-28T10:05:12;98305.25;;;1.30;52.85
61039;BME280;46919;45.816;3.104;2023-02-28T10:10:43;98301.41;;;1.50;53.15
61039;BME280;46919;45.816;3.104;2023-02-28T10:13:26;98301.69;;;1.65;51.89
61039;BME280;46919;45.816;3.104;2023-02-28T10:15:54;98310.59;;;1.56;52.67
61039;BME280;46919;45.816;3.104;2023-02-28T10:18:38;98314.44;;;1.61;52.13
61039;BME280;46919;45.816;3.104;2023-02-28T10:21:05;98305.47;;;1.62;52.95
61039;BME280;46919;45.816;3.104;2023-02-28T10:23:34;98314.44;;;1.61;53.08
61039;BME280;46919;45.816;3.104;2023-02-28T10:26:09;98305.47;;;1.62;52.96
61039;BME280;46919;45.816;3.104;2023-02-28T10:28:36;98307.41;;;1.78;52.88
61039;BME280;46919;45.816;3.104;2023-02-28T10:31:02;98302.97;;;1.87;52.38
61039;BME280;46919;45.816;3.104;2023-02-28T10:33:30;98311.13;;;1.86;52.55
61039;BME280;46919;45.816;3.104;2023-02-28T10:35:56;98316.09;;;1.89;52.66
61039;BME280;46919;45.816;3.104;2023-02-28T10:40:49;98316.19;;;2.05;52.45
61039;BME280;46919;45.816;3.104;2023-02-28T10:45:56;98308.38;;;1.77;51.96
61039;BME280;46919;45.816;3.104;2023-02-28T10:58:26;98299.00;;;1.99;52.05
61039;BME280;46919;45.816;3.104;2023-02-28T11:00:52;98302.44;;;2.26;51.60
61039;BME280;46919;45.816;3.104;2023-02-28T11:03:34;98299.09;;;2.24;51.51
61039;BME280;46919;45.816;3.104;2023-02-28T11:06:15;98298.44;;;2.22;51.05
61039;BME280;46919;45.816;3.104;2023-02-28T11:08:47;98291.25;;;2.23;51.03
61039;BME280;46919;45.816;3.104;2023-02-28T11:11:14;98298.13;;;2.33;51.24
61039;BME280;46919;45.816;3.104;2023-02-28T11:13:39;98299.94;;;2.25;51.09
61039;BME280;46919;45.816;3.104;2023-02-28T11:16:07;98290.97;;;2.34;51.32
61039;BME280;46919;45.816;3.104;2023-02-28T11:18:40;98296.13;;;2.35;51.18
61039;BME280;46919;45.816;3.104;2023-02-28T11:21:07;98298.00;;;2.43;50.85
61039;BME280;46919;45.816;3.104;2023-02-28T11:23:35;98296.63;;;2.39;51.38
61039;BME280;46919;45.816;3.104;2023-02-28T11:26:03;98293.22;;;2.63;50.47
61039;BME280;46919;45.816;3.104;2023-02-28T11:28:39;98292.84;;;2.66;50.26
61039;BME280;46919;45.816;3.104;2023-02-28T11:31:15;98296.88;;;2.79;49.83
61039;BME280;46919;45.816;3.104;2023-02-28T11:33:54;98306.41;;;2.81;50.35
61039;BME280;46919;45.816;3.104;2023-02-28T11:36:26;98300.56;;;2.78;49.92
61039;BME280;46919;45.816;3.104;2023-02-28T11:38:54;98298.22;;;2.83;49.89
61039;BME280;46919;45.816;3.104;2023-02-28T11:52:45;98279.69;;;3.31;47.82
61039;BME280;46919;45.816;3.104;2023-02-28T12:11:50;98246.69;;;3.79;48.30
61039;BME280;46919;45.816;3.104;2023-02-28T12:14:29;98245.25;;;4.00;48.39
61039;BME280;46919;45.816;3.104;2023-02-28T12:17:55;98247.19;;;4.14;47.90
61039;BME280;46919;45.816;3.104;2023-02-28T12:22:58;98236.56;;;3.98;47.17
61039;BME280;46919;45.816;3.104;2023-02-28T12:28:11;98236.72;;;4.05;46.98
61039;BME280;46919;45.816;3.104;2023-02-28T12:30:44;98236.56;;;4.06;46.93
61039;BME280;46919;45.816;3.104;2023-02-28T12:33:14;98223.06;;;3.91;46.87
61039;BME280;46919;45.816;3.104;2023-02-28T12:35:51;98227.06;;;3.95;46.03
61039;BME280;46919;45.816;3.104;2023-02-28T12:38:30;98223.81;;;4.08;47.27
61039;BME280;46919;45.816;3.104;2023-02-28T12:41:04;98219.28;;;4.09;46.73
61039;BME280;46919;45.816;3.104;2023-02-28T12:43:36;98219.41;;;4.15;46.85
61039;BME280;46919;45.816;3.104;2023-02-28T12:46:19;98220.88;;;4.26;44.90
61039;BME280;46919;45.816;3.104;2023-02-28T12:48:50;98216.72;;;4.24;45.95
61039;BME280;46919;45.816;3.104;2023-02-28T12:51:18;98219.34;;;4.32;46.56
61039;BME280;46919;45.816;3.104;2023-02-28T12:59:02;98223.94;;;4.15;45.54
61039;BME280;46919;45.816;3.104;2023-02-28T13:09:25;98208.00;;;3.98;46.05
61039;BME280;46919;45.816;3.104;2023-02-28T13:11:52;98209.16;;;3.96;46.11
61039;BME280;46919;45.816;3.104;2023-02-28T13:16:52;98211.06;;;3.79;46.08
61039;BME280;46919;45.816;3.104;2023-02-28T13:19:20;98207.75;;;3.77;46.35
61039;BME280;46919;45.816;3.104;2023-02-28T13:21:48;98217.66;;;3.68;46.02
61039;BME280;46919;45.816;3.104;2023-02-28T13:24:37;98212.97;;;3.70;45.40
61039;BME280;46919;45.816;3.104;2023-02-28T13:29:34;98210.69;;;3.42;46.10
61039;BME280;46919;45.816;3.104;2023-02-28T13:39:54;98216.75;;;3.28;46.30
61039;BME280;46919;45.816;3.104;2023-02-28T13:42:46;98202.75;;;3.26;45.68
61039;BME280;46919;45.816;3.104;2023-02-28T13:50:34;98205.09;;;3.21;44.87
61039;BME280;46919;45.816;3.104;2023-02-28T13:58:56;98215.13;;;3.19;45.71
61039;BME280;46919;45.816;3.104;2023-02-28T14:01:53;98213.78;;;3.06;45.83
61039;BME280;46919;45.816;3.104;2023-02-28T14:07:00;98218.81;;;3.10;46.37
61039;BME280;46919;45.816;3.104;2023-02-28T14:09:37;98204.59;;;3.17;44.87
61039;BME280;46919;45.816;3.104;2023-02-28T14:17:57;98222.13;;;2.79;46.44
61039;BME280;46919;45.816;3.104;2023-02-28T14:20:26;98226.50;;;2.63;46.25
61039;BME280;46919;45.816;3.104;2023-02-28T14:26:16;98229.81;;;2.65;46.95
61039;BME280;46919;45.816;3.104;2023-02-28T14:29:00;98230.47;;;2.67;46.57
61039;BME280;46919;45.816;3.104;2023-02-28T14:31:36;98226.81;;;2.68;46.73
61039;BME280;46919;45.816;3.104;2023-02-28T14:36:47;98232.81;;;2.62;46.85
61039;BME280;46919;45.816;3.104;2023-02-28T14:39:20;98236.47;;;2.53;46.77
61039;BME280;46919;45.816;3.104;2023-02-28T14:41:46;98242.47;;;2.47;46.93
61039;BME280;46919;45.816;3.104;2023-02-28T14:44:23;98233.97;;;2.43;46.86
61039;BME280;46919;45.816;3.104;2023-02-28T14:46:52;98235.09;;;2.24;46.99
61039;BME280;46919;45.816;3.104;2023-02-28T14:49:22;98240.56;;;2.14;47.17
61039;BME280;46919;45.816;3.104;2023-02-28T14:54:28;98236.88;;;2.15;47.40
61039;BME280;46919;45.816;3.104;2023-02-28T14:56:54;98238.91;;;2.13;47.32
61039;BME280;46919;45.816;3.104;2023-02-28T14:59:29;98232.09;;;2.19;47.67
61039;BME280;46919;45.816;3.104;2023-02-28T15:02:30;98238.56;;;2.16;47.55
61039;BME280;46919;45.816;3.104;2023-02-28T15:07:46;98236.53;;;2.02;49.00
61039;BME280;46919;45.816;3.104;2023-02-28T15:10:24;98233.72;;;2.04;49.11
61039;BME280;46919;45.816;3.104;2023-02-28T15:15:16;98233.38;;;1.98;49.51
61039;BME280;46919;45.816;3.104;2023-02-28T15:17:45;98237.19;;;2.04;49.10
61039;BME280;46919;45.816;3.104;2023-02-28T15:20:15;98239.34;;;2.01;49.47
61039;BME280;46919;45.816;3.104;2023-02-28T15:22:41;98229.66;;;1.91;49.15
61039;BME280;46919;45.816;3.104;2023-02-28T15:25:10;98229.63;;;1.83;49.44
61039;BME280;46919;45.816;3.104;2023-02-28T15:27:44;98230.75;;;1.72;49.86
61039;BME280;46919;45.816;3.104;2023-02-28T15:30:19;98233.38;;;1.64;50.92
61039;BME280;46919;45.816;3.104;2023-02-28T15:33:07;98237.56;;;1.67;49.70
61039;BME280;46919;45.816;3.104;2023-02-28T15:35:34;98229.50;;;1.58;50.71